Georgetown, TX (78626)

3:09 PM CST on March 03, 2015 (GMT -0600)
Golden Oaks | Change Station
CLOSE
Current Station
Personal Weather Station
Location: Georgetown, TX
Elevation: 748 ft
Nearby Weather Stations

Elev 748 ft 30.67 °N, 97.68 °W | Updated 1 minute ago

Fog
Fog
57.2 °F
Feels Like 57.2 °F
N
6.5
Wind Variable Wind from SSE
Gusts 6.5 mph

Today
High -- | Low -- °F
--% Chance of Precip.
Yesterday
High -- | Low -- °F
Precip. -- in
6:54 AM 6:30 PM
Waxing Gibbous, 97% visible
Pressure 29.85 in
Visibility 1.2 miles
Clouds Overcast 200 ft
Dew Point 57 °F
Humidity 100%
Rainfall 0.02 in
Snow Depth Not available.
UV 2 out of 12
Pollen 7.60 out of 12
Air Quality Not available.
Flu Activity Not available.
METAR KGTU 032050Z 16005KT 1 1/4SM BR OVC002 13/13 A2985

More Conditions Fewer Conditions

Pressure 29.85 in
Visibility 1.2 miles
Clouds Overcast 200 ft
Dew Point 57 °F
Humidity 100%
Rainfall 0.02 in
Snow Depth Not available.
UV 2 out of 12
Pollen 7.60 out of 12
Air Quality Not available.
Flu Activity Not available.
METAR KGTU 032050Z 16005KT 1 1/4SM BR OVC002 13/13 A2985

More Conditions Fewer Conditions

10-Day Weather Forecast

Almanac

Astronomy

Mar. 03, 2015 Rise Set
Actual Time
Civil Twilight
Nautical Twilight
Astronomical Twilight
Moon
Length of Visible Light
Length of Day
Tomorrow will be .
, % of the Moon is Illuminated

Today's Extremes

State Highs State Lows

Community

WunderPhotos

Upload Photos

1,802,254 photos uploaded!

WunderBlogs® & News

Nearby

Air Quality

  Air Quality AQ Index Pollutant
Not available.

Snow Depth

Station Depth Elevation

Earthquake Activity

City Distance Mag. Time & Date
Minimum magnitude displayed is 2.5.

Coastal Water Temperatures

Place Temperature

Nearby Weather Stations